sensor_id;sensor_type;location;lat;lon;timestamp;P1;durP1;ratioP1;P2;durP2;ratioP2
39242;SDS011;29823;47.404;8.566;2023-11-19T00:01:45;9.88;;;3.15;;
39242;SDS011;29823;47.404;8.566;2023-11-19T00:04:14;6.18;;;3.65;;
39242;SDS011;29823;47.404;8.566;2023-11-19T00:06:43;5.25;;;3.10;;
39242;SDS011;29823;47.404;8.566;2023-11-19T00:09:11;4.28;;;2.70;;
39242;SDS011;29823;47.404;8.566;2023-11-19T00:11:39;4.22;;;2.38;;
39242;SDS011;29823;47.404;8.566;2023-11-19T00:14:07;5.07;;;2.47;;
39242;SDS011;29823;47.404;8.566;2023-11-19T00:16:35;4.03;;;2.13;;
39242;SDS011;29823;47.404;8.566;2023-11-19T00:19:02;5.25;;;2.50;;
39242;SDS011;29823;47.404;8.566;2023-11-19T00:21:31;3.75;;;2.20;;
39242;SDS011;29823;47.404;8.566;2023-11-19T00:24:01;8.38;;;2.40;;
39242;SDS011;29823;47.404;8.566;2023-11-19T00:26:30;8.55;;;2.00;;
39242;SDS011;29823;47.404;8.566;2023-11-19T00:28:58;3.80;;;2.28;;
39242;SDS011;29823;47.404;8.566;2023-11-19T00:31:26;5.38;;;2.40;;
39242;SDS011;29823;47.404;8.566;2023-11-19T00:33:54;4.35;;;2.50;;
39242;SDS011;29823;47.404;8.566;2023-11-19T00:36:22;4.88;;;2.53;;
39242;SDS011;29823;47.404;8.566;2023-11-19T00:38:51;3.60;;;2.33;;
39242;SDS011;29823;47.404;8.566;2023-11-19T00:41:21;5.03;;;2.35;;
39242;SDS011;29823;47.404;8.566;2023-11-19T00:43:49;3.40;;;2.53;;
39242;SDS011;29823;47.404;8.566;2023-11-19T00:46:16;6.00;;;2.90;;
39242;SDS011;29823;47.404;8.566;2023-11-19T00:48:44;6.30;;;2.90;;
39242;SDS011;29823;47.404;8.566;2023-11-19T00:51:14;3.83;;;2.55;;
39242;SDS011;29823;47.404;8.566;2023-11-19T00:53:42;3.95;;;2.90;;
39242;SDS011;29823;47.404;8.566;2023-11-19T00:56:10;3.80;;;2.70;;
39242;SDS011;29823;47.404;8.566;2023-11-19T00:58:40;5.53;;;2.90;;
39242;SDS011;29823;47.404;8.566;2023-11-19T01:01:09;4.65;;;3.28;;
39242;SDS011;29823;47.404;8.566;2023-11-19T01:03:36;5.80;;;3.53;;
39242;SDS011;29823;47.404;8.566;2023-11-19T01:06:05;9.88;;;3.42;;
39242;SDS011;29823;47.404;8.566;2023-11-19T01:08:32;6.30;;;3.53;;
39242;SDS011;29823;47.404;8.566;2023-11-19T01:11:02;7.32;;;2.85;;
39242;SDS011;29823;47.404;8.566;2023-11-19T01:13:30;4.68;;;2.90;;
39242;SDS011;29823;47.404;8.566;2023-11-19T01:16:00;4.70;;;3.30;;
39242;SDS011;29823;47.404;8.566;2023-11-19T01:18:28;4.63;;;3.20;;
39242;SDS011;29823;47.404;8.566;2023-11-19T01:20:56;5.70;;;3.15;;
39242;SDS011;29823;47.404;8.566;2023-11-19T01:23:24;6.93;;;3.67;;
39242;SDS011;29823;47.404;8.566;2023-11-19T01:25:51;10.63;;;3.22;;
39242;SDS011;29823;47.404;8.566;2023-11-19T01:28:19;4.68;;;3.13;;
39242;SDS011;29823;47.404;8.566;2023-11-19T01:30:47;4.95;;;3.30;;
39242;SDS011;29823;47.404;8.566;2023-11-19T01:33:19;4.38;;;2.90;;
39242;SDS011;29823;47.404;8.566;2023-11-19T01:35:48;4.38;;;2.90;;
39242;SDS011;29823;47.404;8.566;2023-11-19T01:38:15;4.00;;;2.58;;
39242;SDS011;29823;47.404;8.566;2023-11-19T01:40:43;8.30;;;3.10;;
39242;SDS011;29823;47.404;8.566;2023-11-19T01:43:11;4.70;;;2.90;;
39242;SDS011;29823;47.404;8.566;2023-11-19T01:45:40;4.13;;;2.80;;
39242;SDS011;29823;47.404;8.566;2023-11-19T01:48:08;3.17;;;2.17;;
39242;SDS011;29823;47.404;8.566;2023-11-19T01:50:39;4.35;;;2.47;;
39242;SDS011;29823;47.404;8.566;2023-11-19T01:53:07;4.80;;;2.33;;
39242;SDS011;29823;47.404;8.566;2023-11-19T01:55:35;4.18;;;2.30;;
39242;SDS011;29823;47.404;8.566;2023-11-19T01:58:03;2.58;;;1.77;;
39242;SDS011;29823;47.404;8.566;2023-11-19T02:00:29;3.05;;;1.98;;
39242;SDS011;29823;47.404;8.566;2023-11-19T02:02:59;4.28;;;1.92;;
39242;SDS011;29823;47.404;8.566;2023-11-19T02:05:28;4.13;;;1.85;;
39242;SDS011;29823;47.404;8.566;2023-11-19T02:08:00;9.52;;;1.95;;
39242;SDS011;29823;47.404;8.566;2023-11-19T02:10:27;5.05;;;2.03;;
39242;SDS011;29823;47.404;8.566;2023-11-19T02:12:55;3.78;;;2.25;;
39242;SDS011;29823;47.404;8.566;2023-11-19T02:15:32;5.47;;;1.65;;
39242;SDS011;29823;47.404;8.566;2023-11-19T02:20:54;2.83;;;1.67;;
39242;SDS011;29823;47.404;8.566;2023-11-19T02:23:23;2.90;;;1.70;;
39242;SDS011;29823;47.404;8.566;2023-11-19T02:25:55;2.10;;;1.58;;
39242;SDS011;29823;47.404;8.566;2023-11-19T02:28:26;2.33;;;1.83;;
39242;SDS011;29823;47.404;8.566;2023-11-19T02:30:54;3.55;;;1.77;;
39242;SDS011;29823;47.404;8.566;2023-11-19T02:33:22;2.50;;;1.60;;
39242;SDS011;29823;47.404;8.566;2023-11-19T02:35:51;4.60;;;1.70;;
39242;SDS011;29823;47.404;8.566;2023-11-19T02:38:18;4.93;;;1.70;;
39242;SDS011;29823;47.404;8.566;2023-11-19T02:40:48;2.08;;;1.45;;
39242;SDS011;29823;47.404;8.566;2023-11-19T02:43:16;2.95;;;1.75;;
39242;SDS011;29823;47.404;8.566;2023-11-19T02:45:45;2.67;;;2.10;;
39242;SDS011;29823;47.404;8.566;2023-11-19T02:48:13;3.47;;;1.98;;
39242;SDS011;29823;47.404;8.566;2023-11-19T02:50:41;3.33;;;2.22;;
39242;SDS011;29823;47.404;8.566;2023-11-19T02:53:09;4.00;;;2.00;;
39242;SDS011;29823;47.404;8.566;2023-11-19T02:55:37;3.00;;;2.13;;
39242;SDS011;29823;47.404;8.566;2023-11-19T02:58:07;5.53;;;2.35;;
39242;SDS011;29823;47.404;8.566;2023-11-19T03:00:47;2.72;;;2.13;;
39242;SDS011;29823;47.404;8.566;2023-11-19T03:03:24;4.15;;;2.53;;
39242;SDS011;29823;47.404;8.566;2023-11-19T03:05:55;3.45;;;2.58;;
39242;SDS011;29823;47.404;8.566;2023-11-19T03:08:23;4.85;;;2.28;;
39242;SDS011;29823;47.404;8.566;2023-11-19T03:10:50;4.50;;;2.50;;
39242;SDS011;29823;47.404;8.566;2023-11-19T03:13:18;5.75;;;3.00;;
39242;SDS011;29823;47.404;8.566;2023-11-19T03:15:47;5.07;;;2.40;;
39242;SDS011;29823;47.404;8.566;2023-11-19T03:18:15;4.35;;;2.28;;
39242;SDS011;29823;47.404;8.566;2023-11-19T03:20:43;6.70;;;2.65;;
39242;SDS011;29823;47.404;8.566;2023-11-19T03:23:10;5.18;;;2.65;;
39242;SDS011;29823;47.404;8.566;2023-11-19T03:25:39;6.60;;;2.63;;
39242;SDS011;29823;47.404;8.566;2023-11-19T03:28:06;5.72;;;2.50;;
39242;SDS011;29823;47.404;8.566;2023-11-19T03:30:34;2.97;;;2.47;;
39242;SDS011;29823;47.404;8.566;2023-11-19T03:33:04;5.22;;;2.85;;
39242;SDS011;29823;47.404;8.566;2023-11-19T03:35:32;4.80;;;2.72;;
39242;SDS011;29823;47.404;8.566;2023-11-19T03:38:00;6.90;;;3.17;;
39242;SDS011;29823;47.404;8.566;2023-11-19T03:40:28;5.00;;;3.08;;
39242;SDS011;29823;47.404;8.566;2023-11-19T03:42:56;10.77;;;6.03;;
39242;SDS011;29823;47.404;8.566;2023-11-19T03:45:24;13.70;;;6.72;;
39242;SDS011;29823;47.404;8.566;2023-11-19T03:47:52;9.00;;;5.32;;
39242;SDS011;29823;47.404;8.566;2023-11-19T03:50:21;12.85;;;5.85;;
39242;SDS011;29823;47.404;8.566;2023-11-19T03:52:49;7.93;;;4.22;;
39242;SDS011;29823;47.404;8.566;2023-11-19T03:55:17;6.57;;;4.10;;
39242;SDS011;29823;47.404;8.566;2023-11-19T03:57:45;7.95;;;4.82;;
39242;SDS011;29823;47.404;8.566;2023-11-19T04:00:13;8.93;;;4.22;;
39242;SDS011;29823;47.404;8.566;2023-11-19T04:02:41;7.65;;;3.50;;
39242;SDS011;29823;47.404;8.566;2023-11-19T04:05:09;7.30;;;3.60;;
39242;SDS011;29823;47.404;8.566;2023-11-19T04:07:38;6.40;;;3.60;;
39242;SDS011;29823;47.404;8.566;2023-11-19T04:10:06;5.88;;;3.33;;
39242;SDS011;29823;47.404;8.566;2023-11-19T04:12:34;7.32;;;3.20;;
39242;SDS011;29823;47.404;8.566;2023-11-19T04:15:03;5.28;;;2.85;;
39242;SDS011;29823;47.404;8.566;2023-11-19T04:17:31;5.53;;;2.88;;
39242;SDS011;29823;47.404;8.566;2023-11-19T04:19:58;4.70;;;3.20;;
39242;SDS011;29823;47.404;8.566;2023-11-19T04:22:26;5.68;;;3.03;;
39242;SDS011;29823;47.404;8.566;2023-11-19T04:24:55;4.38;;;3.00;;
39242;SDS011;29823;47.404;8.566;2023-11-19T04:27:23;3.42;;;2.67;;
39242;SDS011;29823;47.404;8.566;2023-11-19T04:29:51;5.72;;;2.42;;
39242;SDS011;29823;47.404;8.566;2023-11-19T04:32:21;5.47;;;2.72;;
39242;SDS011;29823;47.404;8.566;2023-11-19T04:34:49;4.95;;;2.40;;
39242;SDS011;29823;47.404;8.566;2023-11-19T04:37:17;3.78;;;2.22;;
39242;SDS011;29823;47.404;8.566;2023-11-19T04:39:45;4.32;;;2.13;;
39242;SDS011;29823;47.404;8.566;2023-11-19T04:42:15;5.75;;;2.42;;
39242;SDS011;29823;47.404;8.566;2023-11-19T04:44:43;6.15;;;3.13;;
39242;SDS011;29823;47.404;8.566;2023-11-19T04:47:11;4.88;;;2.58;;
39242;SDS011;29823;47.404;8.566;2023-11-19T04:49:40;5.90;;;2.53;;
39242;SDS011;29823;47.404;8.566;2023-11-19T04:52:09;5.40;;;2.25;;
39242;SDS011;29823;47.404;8.566;2023-11-19T04:54:40;2.80;;;2.15;;
39242;SDS011;29823;47.404;8.566;2023-11-19T04:57:08;3.83;;;2.17;;
39242;SDS011;29823;47.404;8.566;2023-11-19T04:59:38;4.50;;;2.38;;
39242;SDS011;29823;47.404;8.566;2023-11-19T05:02:06;6.10;;;2.17;;
39242;SDS011;29823;47.404;8.566;2023-11-19T05:04:33;6.63;;;2.40;;
39242;SDS011;29823;47.404;8.566;2023-11-19T05:07:01;4.10;;;2.45;;
39242;SDS011;29823;47.404;8.566;2023-11-19T05:09:30;5.10;;;2.00;;
39242;SDS011;29823;47.404;8.566;2023-11-19T05:11:58;3.80;;;2.10;;
39242;SDS011;29823;47.404;8.566;2023-11-19T05:14:26;6.65;;;2.60;;
39242;SDS011;29823;47.404;8.566;2023-11-19T05:16:55;6.40;;;2.38;;
39242;SDS011;29823;47.404;8.566;2023-11-19T05:19:23;3.40;;;2.15;;
39242;SDS011;29823;47.404;8.566;2023-11-19T05:21:51;2.88;;;2.05;;
39242;SDS011;29823;47.404;8.566;2023-11-19T05:24:19;3.60;;;2.38;;
39242;SDS011;29823;47.404;8.566;2023-11-19T05:26:46;4.25;;;2.30;;
39242;SDS011;29823;47.404;8.566;2023-11-19T05:29:14;4.07;;;2.30;;
39242;SDS011;29823;47.404;8.566;2023-11-19T05:31:42;6.30;;;3.80;;
39242;SDS011;29823;47.404;8.566;2023-11-19T05:34:12;8.27;;;2.88;;
39242;SDS011;29823;47.404;8.566;2023-11-19T05:36:41;5.85;;;2.13;;
39242;SDS011;29823;47.404;8.566;2023-11-19T05:39:09;4.13;;;2.20;;
39242;SDS011;29823;47.404;8.566;2023-11-19T05:41:37;3.65;;;2.05;;
39242;SDS011;29823;47.404;8.566;2023-11-19T05:44:05;8.15;;;4.82;;
39242;SDS011;29823;47.404;8.566;2023-11-19T05:46:33;4.75;;;2.70;;
39242;SDS011;29823;47.404;8.566;2023-11-19T05:49:06;3.63;;;2.20;;
39242;SDS011;29823;47.404;8.566;2023-11-19T05:51:37;5.45;;;2.33;;
39242;SDS011;29823;47.404;8.566;2023-11-19T05:54:06;4.50;;;1.98;;
39242;SDS011;29823;47.404;8.566;2023-11-19T05:56:33;3.47;;;2.10;;
39242;SDS011;29823;47.404;8.566;2023-11-19T05:59:01;3.33;;;2.22;;
39242;SDS011;29823;47.404;8.566;2023-11-19T06:01:33;4.60;;;1.90;;
39242;SDS011;29823;47.404;8.566;2023-11-19T06:04:02;3.72;;;1.80;;
39242;SDS011;29823;47.404;8.566;2023-11-19T06:06:31;4.53;;;1.80;;
39242;SDS011;29823;47.404;8.566;2023-11-19T06:09:00;6.15;;;1.77;;
39242;SDS011;29823;47.404;8.566;2023-11-19T06:11:35;2.55;;;1.77;;
39242;SDS011;29823;47.404;8.566;2023-11-19T06:14:03;3.25;;;1.63;;
39242;SDS011;29823;47.404;8.566;2023-11-19T06:16:32;2.97;;;1.80;;
39242;SDS011;29823;47.404;8.566;2023-11-19T06:19:00;5.53;;;1.80;;
39242;SDS011;29823;47.404;8.566;2023-11-19T06:21:28;2.72;;;1.90;;
39242;SDS011;29823;47.404;8.566;2023-11-19T06:23:55;5.35;;;2.03;;
39242;SDS011;29823;47.404;8.566;2023-11-19T06:26:26;3.53;;;1.98;;
39242;SDS011;29823;47.404;8.566;2023-11-19T06:28:54;4.90;;;2.17;;
39242;SDS011;29823;47.404;8.566;2023-11-19T06:31:22;4.55;;;1.77;;
39242;SDS011;29823;47.404;8.566;2023-11-19T06:33:50;4.63;;;2.15;;
39242;SDS011;29823;47.404;8.566;2023-11-19T06:36:18;2.63;;;1.85;;
39242;SDS011;29823;47.404;8.566;2023-11-19T06:38:45;2.55;;;1.63;;
39242;SDS011;29823;47.404;8.566;2023-11-19T06:41:13;3.15;;;1.60;;
39242;SDS011;29823;47.404;8.566;2023-11-19T06:43:42;2.95;;;1.85;;
39242;SDS011;29823;47.404;8.566;2023-11-19T06:46:14;5.90;;;1.70;;
39242;SDS011;29823;47.404;8.566;2023-11-19T06:48:42;5.95;;;2.47;;
39242;SDS011;29823;47.404;8.566;2023-11-19T06:51:10;8.18;;;3.67;;
39242;SDS011;29823;47.404;8.566;2023-11-19T06:53:38;2.42;;;1.70;;
39242;SDS011;29823;47.404;8.566;2023-11-19T06:56:16;2.90;;;1.80;;
39242;SDS011;29823;47.404;8.566;2023-11-19T06:58:46;4.20;;;1.77;;
39242;SDS011;29823;47.404;8.566;2023-11-19T07:01:14;3.90;;;1.60;;
39242;SDS011;29823;47.404;8.566;2023-11-19T07:03:42;2.72;;;1.83;;
39242;SDS011;29823;47.404;8.566;2023-11-19T07:06:10;1.73;;;1.48;;
39242;SDS011;29823;47.404;8.566;2023-11-19T07:08:39;3.47;;;1.55;;
39242;SDS011;29823;47.404;8.566;2023-11-19T07:11:08;1.83;;;1.42;;
39242;SDS011;29823;47.404;8.566;2023-11-19T07:13:36;4.13;;;1.80;;
39242;SDS011;29823;47.404;8.566;2023-11-19T07:16:06;5.65;;;1.65;;
39242;SDS011;29823;47.404;8.566;2023-11-19T07:18:36;5.55;;;1.80;;
39242;SDS011;29823;47.404;8.566;2023-11-19T07:21:04;6.13;;;1.65;;
39242;SDS011;29823;47.404;8.566;2023-11-19T07:23:32;19.02;;;3.40;;
39242;SDS011;29823;47.404;8.566;2023-11-19T07:26:00;3.47;;;1.25;;
39242;SDS011;29823;47.404;8.566;2023-11-19T07:28:28;4.75;;;1.60;;
39242;SDS011;29823;47.404;8.566;2023-11-19T07:30:56;3.50;;;1.70;;
39242;SDS011;29823;47.404;8.566;2023-11-19T07:33:25;3.78;;;1.63;;
39242;SDS011;29823;47.404;8.566;2023-11-19T07:35:53;3.67;;;1.98;;
39242;SDS011;29823;47.404;8.566;2023-11-19T07:38:20;8.38;;;3.63;;
39242;SDS011;29823;47.404;8.566;2023-11-19T07:40:49;3.80;;;1.60;;
39242;SDS011;29823;47.404;8.566;2023-11-19T07:43:20;4.38;;;1.80;;
39242;SDS011;29823;47.404;8.566;2023-11-19T07:45:47;3.08;;;1.92;;
39242;SDS011;29823;47.404;8.566;2023-11-19T07:48:15;4.68;;;1.70;;
39242;SDS011;29823;47.404;8.566;2023-11-19T07:50:46;3.42;;;1.73;;
39242;SDS011;29823;47.404;8.566;2023-11-19T07:53:13;2.97;;;1.67;;
39242;SDS011;29823;47.404;8.566;2023-11-19T07:55:41;4.38;;;1.70;;
39242;SDS011;29823;47.404;8.566;2023-11-19T07:58:10;2.55;;;1.70;;
39242;SDS011;29823;47.404;8.566;2023-11-19T08:00:38;7.50;;;3.05;;
39242;SDS011;29823;47.404;8.566;2023-11-19T08:03:06;2.22;;;1.48;;
39242;SDS011;29823;47.404;8.566;2023-11-19T08:05:35;5.78;;;1.88;;
39242;SDS011;29823;47.404;8.566;2023-11-19T08:08:05;2.03;;;1.52;;
39242;SDS011;29823;47.404;8.566;2023-11-19T08:10:33;6.72;;;1.85;;
39242;SDS011;29823;47.404;8.566;2023-11-19T08:13:01;3.28;;;1.92;;
39242;SDS011;29823;47.404;8.566;2023-11-19T08:15:29;5.05;;;1.48;;
39242;SDS011;29823;47.404;8.566;2023-11-19T08:17:58;15.48;;;8.25;;
39242;SDS011;29823;47.404;8.566;2023-11-19T08:20:26;5.05;;;2.15;;
39242;SDS011;29823;47.404;8.566;2023-11-19T08:22:54;4.00;;;1.92;;
39242;SDS011;29823;47.404;8.566;2023-11-19T08:25:23;2.80;;;1.73;;
39242;SDS011;29823;47.404;8.566;2023-11-19T08:27:51;2.22;;;1.50;;
39242;SDS011;29823;47.404;8.566;2023-11-19T08:30:19;2.42;;;1.40;;
39242;SDS011;29823;47.404;8.566;2023-11-19T08:32:46;3.33;;;1.58;;
39242;SDS011;29823;47.404;8.566;2023-11-19T08:35:14;3.95;;;2.35;;
39242;SDS011;29823;47.404;8.566;2023-11-19T08:37:42;4.80;;;1.63;;
39242;SDS011;29823;47.404;8.566;2023-11-19T08:40:12;2.05;;;1.45;;
39242;SDS011;29823;47.404;8.566;2023-11-19T08:42:42;10.23;;;6.60;;
39242;SDS011;29823;47.404;8.566;2023-11-19T08:45:09;3.33;;;1.83;;
39242;SDS011;29823;47.404;8.566;2023-11-19T08:47:37;4.93;;;2.00;;
39242;SDS011;29823;47.404;8.566;2023-11-19T08:50:07;3.47;;;1.67;;
39242;SDS011;29823;47.404;8.566;2023-11-19T08:52:36;4.97;;;1.55;;
39242;SDS011;29823;47.404;8.566;2023-11-19T08:55:03;2.97;;;1.83;;
39242;SDS011;29823;47.404;8.566;2023-11-19T08:57:33;2.67;;;1.67;;
39242;SDS011;29823;47.404;8.566;2023-11-19T09:00:02;2.60;;;1.58;;
39242;SDS011;29823;47.404;8.566;2023-11-19T09:02:30;5.45;;;2.10;;
39242;SDS011;29823;47.404;8.566;2023-11-19T09:04:59;5.53;;;1.95;;
39242;SDS011;29823;47.404;8.566;2023-11-19T09:07:26;4.55;;;1.80;;
39242;SDS011;29823;47.404;8.566;2023-11-19T09:09:54;2.92;;;1.77;;
39242;SDS011;29823;47.404;8.566;2023-11-19T09:12:23;4.13;;;2.00;;
39242;SDS011;29823;47.404;8.566;2023-11-19T09:14:51;4.10;;;1.75;;
39242;SDS011;29823;47.404;8.566;2023-11-19T09:17:20;2.08;;;1.50;;
39242;SDS011;29823;47.404;8.566;2023-11-19T09:19:48;1.85;;;1.42;;
39242;SDS011;29823;47.404;8.566;2023-11-19T09:22:16;3.55;;;1.48;;
39242;SDS011;29823;47.404;8.566;2023-11-19T09:24:43;3.63;;;1.48;;
39242;SDS011;29823;47.404;8.566;2023-11-19T09:27:11;2.97;;;1.70;;
39242;SDS011;29823;47.404;8.566;2023-11-19T09:29:39;2.95;;;1.42;;
39242;SDS011;29823;47.404;8.566;2023-11-19T09:32:06;2.60;;;1.30;;
39242;SDS011;29823;47.404;8.566;2023-11-19T09:34:36;3.15;;;1.50;;
39242;SDS011;29823;47.404;8.566;2023-11-19T09:37:04;4.78;;;1.70;;
39242;SDS011;29823;47.404;8.566;2023-11-19T09:39:47;1.88;;;1.23;;
39242;SDS011;29823;47.404;8.566;2023-11-19T09:42:15;3.65;;;1.35;;
39242;SDS011;29823;47.404;8.566;2023-11-19T09:44:44;1.38;;;1.10;;
39242;SDS011;29823;47.404;8.566;2023-11-19T09:47:12;3.20;;;1.15;;
39242;SDS011;29823;47.404;8.566;2023-11-19T09:49:43;1.95;;;1.48;;
39242;SDS011;29823;47.404;8.566;2023-11-19T09:52:11;2.70;;;1.20;;
39242;SDS011;29823;47.404;8.566;2023-11-19T09:54:39;4.90;;;1.65;;
39242;SDS011;29823;47.404;8.566;2023-11-19T09:57:07;4.47;;;1.63;;
39242;SDS011;29823;47.404;8.566;2023-11-19T09:59:37;1.70;;;1.35;;
39242;SDS011;29823;47.404;8.566;2023-11-19T10:02:06;1.60;;;1.35;;
39242;SDS011;29823;47.404;8.566;2023-11-19T10:04:36;1.67;;;1.23;;
39242;SDS011;29823;47.404;8.566;2023-11-19T10:07:06;4.05;;;1.35;;
39242;SDS011;29823;47.404;8.566;2023-11-19T10:09:34;3.08;;;1.25;;
39242;SDS011;29823;47.404;8.566;2023-11-19T10:12:02;2.47;;;1.30;;
39242;SDS011;29823;47.404;8.566;2023-11-19T10:14:30;3.63;;;1.30;;
39242;SDS011;29823;47.404;8.566;2023-11-19T10:16:58;2.30;;;1.17;;
39242;SDS011;29823;47.404;8.566;2023-11-19T10:22:01;4.43;;;1.30;;
39242;SDS011;29823;47.404;8.566;2023-11-19T10:26:58;2.63;;;1.35;;
39242;SDS011;29823;47.404;8.566;2023-11-19T10:29:26;2.40;;;1.55;;
39242;SDS011;29823;47.404;8.566;2023-11-19T10:31:55;4.85;;;1.58;;
39242;SDS011;29823;47.404;8.566;2023-11-19T10:34:43;2.15;;;1.38;;
39242;SDS011;29823;47.404;8.566;2023-11-19T10:37:16;2.58;;;1.25;;
39242;SDS011;29823;47.404;8.566;2023-11-19T10:39:54;2.60;;;1.40;;
39242;SDS011;29823;47.404;8.566;2023-11-19T10:42:24;3.47;;;1.52;;
39242;SDS011;29823;47.404;8.566;2023-11-19T10:44:51;2.63;;;1.42;;
39242;SDS011;29823;47.404;8.566;2023-11-19T10:47:19;2.97;;;1.50;;
39242;SDS011;29823;47.404;8.566;2023-11-19T10:50:04;1.80;;;1.20;;
39242;SDS011;29823;47.404;8.566;2023-11-19T10:52:32;1.55;;;1.00;;
39242;SDS011;29823;47.404;8.566;2023-11-19T10:55:01;2.00;;;1.17;;
39242;SDS011;29823;47.404;8.566;2023-11-19T10:57:33;1.38;;;1.10;;
39242;SDS011;29823;47.404;8.566;2023-11-19T11:00:04;2.40;;;1.50;;
39242;SDS011;29823;47.404;8.566;2023-11-19T11:02:40;6.15;;;2.40;;
39242;SDS011;29823;47.404;8.566;2023-11-19T11:05:08;2.25;;;1.42;;
39242;SDS011;29823;47.404;8.566;2023-11-19T11:07:37;1.73;;;1.30;;
39242;SDS011;29823;47.404;8.566;2023-11-19T11:10:07;2.10;;;1.40;;
39242;SDS011;29823;47.404;8.566;2023-11-19T11:12:37;2.72;;;1.60;;
39242;SDS011;29823;47.404;8.566;2023-11-19T11:15:06;3.97;;;1.42;;
39242;SDS011;29823;47.404;8.566;2023-11-19T11:17:34;2.47;;;1.38;;
39242;SDS011;29823;47.404;8.566;2023-11-19T11:20:04;4.57;;;1.60;;
39242;SDS011;29823;47.404;8.566;2023-11-19T11:22:34;2.78;;;1.13;;
39242;SDS011;29823;47.404;8.566;2023-11-19T11:25:13;3.53;;;1.20;;
39242;SDS011;29823;47.404;8.566;2023-11-19T11:27:54;1.55;;;1.10;;
39242;SDS011;29823;47.404;8.566;2023-11-19T11:30:28;2.30;;;1.23;;
39242;SDS011;29823;47.404;8.566;2023-11-19T11:32:59;6.45;;;3.17;;
39242;SDS011;29823;47.404;8.566;2023-11-19T11:35:34;2.10;;;1.23;;
39242;SDS011;29823;47.404;8.566;2023-11-19T11:38:06;3.78;;;1.33;;
39242;SDS011;29823;47.404;8.566;2023-11-19T11:40:34;4.78;;;1.25;;
39242;SDS011;29823;47.404;8.566;2023-11-19T11:43:03;3.80;;;1.42;;
39242;SDS011;29823;47.404;8.566;2023-11-19T11:45:35;4.72;;;1.63;;
39242;SDS011;29823;47.404;8.566;2023-11-19T11:48:10;4.97;;;1.50;;
39242;SDS011;29823;47.404;8.566;2023-11-19T11:50:50;2.85;;;1.88;;
39242;SDS011;29823;47.404;8.566;2023-11-19T11:53:18;2.95;;;1.10;;
39242;SDS011;29823;47.404;8.566;2023-11-19T11:55:53;3.83;;;1.40;;
39242;SDS011;29823;47.404;8.566;2023-11-19T11:58:25;4.20;;;1.25;;
39242;SDS011;29823;47.404;8.566;2023-11-19T12:00:53;1.73;;;1.13;;
39242;SDS011;29823;47.404;8.566;2023-11-19T12:03:21;2.92;;;1.17;;
39242;SDS011;29823;47.404;8.566;2023-11-19T12:05:49;1.95;;;1.05;;
39242;SDS011;29823;47.404;8.566;2023-11-19T12:08:18;2.05;;;1.45;;
39242;SDS011;29823;47.404;8.566;2023-11-19T12:10:51;4.63;;;3.05;;
39242;SDS011;29823;47.404;8.566;2023-11-19T12:13:19;3.53;;;1.40;;
39242;SDS011;29823;47.404;8.566;2023-11-19T12:18:32;3.50;;;1.58;;
39242;SDS011;29823;47.404;8.566;2023-11-19T12:21:00;2.95;;;1.10;;
39242;SDS011;29823;47.404;8.566;2023-11-19T12:23:28;1.75;;;1.30;;
39242;SDS011;29823;47.404;8.566;2023-11-19T12:25:57;2.90;;;1.65;;
39242;SDS011;29823;47.404;8.566;2023-11-19T12:28:24;1.77;;;1.15;;
39242;SDS011;29823;47.404;8.566;2023-11-19T12:30:53;5.38;;;1.30;;
39242;SDS011;29823;47.404;8.566;2023-11-19T12:33:21;1.45;;;1.10;;
39242;SDS011;29823;47.404;8.566;2023-11-19T12:35:50;1.77;;;1.17;;
39242;SDS011;29823;47.404;8.566;2023-11-19T12:38:18;4.20;;;1.00;;
39242;SDS011;29823;47.404;8.566;2023-11-19T12:40:46;2.15;;;1.00;;
39242;SDS011;29823;47.404;8.566;2023-11-19T12:43:21;5.55;;;1.52;;
39242;SDS011;29823;47.404;8.566;2023-11-19T12:45:48;7.05;;;2.38;;
39242;SDS011;29823;47.404;8.566;2023-11-19T12:48:16;9.88;;;3.30;;
39242;SDS011;29823;47.404;8.566;2023-11-19T12:50:52;2.88;;;1.10;;
39242;SDS011;29823;47.404;8.566;2023-11-19T12:53:20;4.25;;;1.08;;
39242;SDS011;29823;47.404;8.566;2023-11-19T12:55:48;3.97;;;0.90;;
39242;SDS011;29823;47.404;8.566;2023-11-19T12:58:28;2.58;;;1.20;;
39242;SDS011;29823;47.404;8.566;2023-11-19T13:00:59;1.52;;;1.00;;
39242;SDS011;29823;47.404;8.566;2023-11-19T13:03:31;3.22;;;1.40;;
39242;SDS011;29823;47.404;8.566;2023-11-19T13:06:04;1.52;;;1.05;;
39242;SDS011;29823;47.404;8.566;2023-11-19T13:08:37;1.90;;;1.30;;
39242;SDS011;29823;47.404;8.566;2023-11-19T13:11:05;1.88;;;1.13;;
39242;SDS011;29823;47.404;8.566;2023-11-19T13:16:16;1.40;;;1.00;;
39242;SDS011;29823;47.404;8.566;2023-11-19T13:18:46;2.13;;;0.98;;
39242;SDS011;29823;47.404;8.566;2023-11-19T13:21:15;1.17;;;0.90;;
39242;SDS011;29823;47.404;8.566;2023-11-19T13:23:43;1.35;;;0.90;;
39242;SDS011;29823;47.404;8.566;2023-11-19T13:26:11;1.33;;;0.90;;
39242;SDS011;29823;47.404;8.566;2023-11-19T13:28:39;2.05;;;0.98;;
39242;SDS011;29823;47.404;8.566;2023-11-19T13:31:07;1.73;;;1.08;;
39242;SDS011;29823;47.404;8.566;2023-11-19T13:33:35;3.95;;;1.30;;
39242;SDS011;29823;47.404;8.566;2023-11-19T13:36:03;2.10;;;1.30;;
39242;SDS011;29823;47.404;8.566;2023-11-19T13:38:35;1.90;;;1.00;;
39242;SDS011;29823;47.404;8.566;2023-11-19T13:41:03;4.53;;;1.10;;
39242;SDS011;29823;47.404;8.566;2023-11-19T13:43:32;2.08;;;0.85;;
39242;SDS011;29823;47.404;8.566;2023-11-19T13:46:00;1.88;;;0.90;;
39242;SDS011;29823;47.404;8.566;2023-11-19T13:48:28;2.45;;;0.80;;
39242;SDS011;29823;47.404;8.566;2023-11-19T13:50:56;2.75;;;0.70;;
39242;SDS011;29823;47.404;8.566;2023-11-19T13:53:24;1.40;;;0.80;;
39242;SDS011;29823;47.404;8.566;2023-11-19T13:55:53;1.27;;;0.90;;
39242;SDS011;29823;47.404;8.566;2023-11-19T13:58:21;1.15;;;0.73;;
39242;SDS011;29823;47.404;8.566;2023-11-19T14:00:48;2.05;;;0.93;;
39242;SDS011;29823;47.404;8.566;2023-11-19T14:03:17;2.13;;;1.08;;
39242;SDS011;29823;47.404;8.566;2023-11-19T14:05:45;1.73;;;0.90;;
39242;SDS011;29823;47.404;8.566;2023-11-19T14:08:12;1.73;;;1.00;;
39242;SDS011;29823;47.404;8.566;2023-11-19T14:10:52;2.47;;;1.00;;
39242;SDS011;29823;47.404;8.566;2023-11-19T14:13:22;1.13;;;0.70;;
39242;SDS011;29823;47.404;8.566;2023-11-19T14:15:50;2.70;;;0.90;;
39242;SDS011;29823;47.404;8.566;2023-11-19T14:18:18;3.60;;;1.00;;
39242;SDS011;29823;47.404;8.566;2023-11-19T14:20:46;4.05;;;1.17;;
39242;SDS011;29823;47.404;8.566;2023-11-19T14:23:15;2.20;;;1.17;;
39242;SDS011;29823;47.404;8.566;2023-11-19T14:25:43;1.15;;;0.80;;
39242;SDS011;29823;47.404;8.566;2023-11-19T14:28:12;0.82;;;0.80;;
39242;SDS011;29823;47.404;8.566;2023-11-19T14:30:39;2.72;;;1.15;;
39242;SDS011;29823;47.404;8.566;2023-11-19T14:33:08;1.25;;;1.02;;
39242;SDS011;29823;47.404;8.566;2023-11-19T14:35:36;9.75;;;5.63;;
39242;SDS011;29823;47.404;8.566;2023-11-19T14:38:03;2.83;;;2.00;;
39242;SDS011;29823;47.404;8.566;2023-11-19T14:40:33;1.38;;;1.20;;
39242;SDS011;29823;47.404;8.566;2023-11-19T14:43:04;3.08;;;1.00;;
39242;SDS011;29823;47.404;8.566;2023-11-19T14:45:33;1.23;;;0.73;;
39242;SDS011;29823;47.404;8.566;2023-11-19T14:48:13;2.33;;;1.13;;
39242;SDS011;29823;47.404;8.566;2023-11-19T14:50:40;1.60;;;1.08;;
39242;SDS011;29823;47.404;8.566;2023-11-19T14:53:08;2.92;;;0.98;;
39242;SDS011;29823;47.404;8.566;2023-11-19T14:55:36;1.63;;;1.00;;
39242;SDS011;29823;47.404;8.566;2023-11-19T14:58:04;1.23;;;0.88;;
39242;SDS011;29823;47.404;8.566;2023-11-19T15:00:38;1.80;;;1.00;;
39242;SDS011;29823;47.404;8.566;2023-11-19T15:03:06;1.80;;;0.98;;
39242;SDS011;29823;47.404;8.566;2023-11-19T15:05:35;1.23;;;0.90;;
39242;SDS011;29823;47.404;8.566;2023-11-19T15:08:03;2.45;;;1.00;;
39242;SDS011;29823;47.404;8.566;2023-11-19T15:10:31;0.88;;;0.85;;
39242;SDS011;29823;47.404;8.566;2023-11-19T15:12:58;2.22;;;0.95;;